WetterOnline ( http://www.wetteronline.de )

Wetter aktuell Magdeburg

Aktuelles Wetter: Magdeburg/Flugplatz (85m)

6-stündlich | Neueste Meldungen
Ortszeit Temperatur Wetter
Di, 28.04. 20:00 9.4° C bewölkt
Di, 28.04. 14:00 11.6° C wolkig
Di, 28.04. 8:00 5.8° C bedeckt
Di, 28.04. 2:00 6.3° C bewölkt
Ortszeit Temperatur Wetter
Di, 28.04. 20:00 9.4° C bewölkt
Di, 28.04. 19:30 11.4° C wolkig
Di, 28.04. 19:00 11.5° C wolkig
Di, 28.04. 18:30 12.0° C leicht bewölkt
Di, 28.04. 18:00 13.1° C leicht bewölkt
Di, 28.04. 17:30 12.7° C leicht bewölkt
Ortszeit Relative Feuchte Sichtweite
Di, 28.04. 20:00 63% 55 km
Di, 28.04. 14:00 54% 55 km
Di, 28.04. 8:00 79% 50 km
Di, 28.04. 2:00 79% 55 km
Ortszeit Relative Feuchte Sichtweite
Di, 28.04. 20:00 63% 55 km
Di, 28.04. 19:30 42% 55 km
Di, 28.04. 19:00 40% 55 km
Di, 28.04. 18:30 36% 55 km
Di, 28.04. 18:00 35% 55 km
Di, 28.04. 17:30 33% 55 km
Ortszeit Niederschlagsmenge Niederschlagsart
Di, 28.04. 20:00 0,0 l/m2 in 12 Std. -
Di, 28.04. 14:00 0,0 l/m2 in 6 Std. -
Di, 28.04. 8:00 1 l/m2 in 12 Std. -
Di, 28.04. 2:00 1 l/m2 in 6 Std. Regen
Ortszeit Niederschlagsmenge Niederschlagsart
Di, 28.04. 20:00 0,0 l/m2 in 1 Std. -
Di, 28.04. 19:30 keine Meldung -
Di, 28.04. 19:00 0,0 l/m2 in 1 Std. -
Di, 28.04. 18:30 keine Meldung -
Di, 28.04. 18:00 0,0 l/m2 in 1 Std. -
Di, 28.04. 17:30 keine Meldung -
Ortszeit Stärke Spitze Richtung
km/h Bft. km/h Grad Sektor
Di, 28.04. 20:00 18 3 43 280° W
Di, 28.04. 14:00 11 2 29 300° NW
Di, 28.04. 8:00 7 2 14 340° N
Di, 28.04. 2:00 7 2 14 20° N
Ortszeit Stärke Spitze Richtung
km/h Bft. km/h Grad Sektor
Di, 28.04. 20:00 18 3 43 280° W
Di, 28.04. 19:30 11 2 22 280° W
Di, 28.04. 19:00 7 2 25 290° W
Di, 28.04. 18:30 11 2 25 280° W
Di, 28.04. 18:00 14 3 25 280° W
Di, 28.04. 17:30 13 3 26 290° W
Ortszeit Untergrenze Bedeckung Gattung
total tief tief mittel hoch
Di, 28.04. 20:00 1380 m 7/8 7/8 Cb - -
Di, 28.04. 14:00 1200 m 7/8 4/8 Cu Ac Ci
Di, 28.04. 8:00 1380 m 8/8 7/8 Sc - -
Di, 28.04. 2:00 1380 m 7/8 7/8 - - -
Ortszeit Bedeckungsgrad in Achtel und Wolkenuntergrenze
Di, 28.04. 20:00 3(1380m) 7(1800m)
Di, 28.04. 19:30 1(1200m) 5(1800m) 5(3000m)
Di, 28.04. 19:00 1(1380m) 6(9000m)
Di, 28.04. 18:30 1(1380m) 6(7800m)
Di, 28.04. 18:00 1(1380m) 5(7800m)
Di, 28.04. 17:30 1(1380m) 5(9000m)
Ortszeit Luftdruck NN (hPa) Tendenz (hPa in 3 Std.)
Di, 28.04. 20:00 1017 + 2,2
Di, 28.04. 14:00 1014 + 1,1
Di, 28.04. 8:00 1011 + 1,7
Di, 28.04. 2:00 1009 + 0,3
Ortszeit Luftdruck NN (hPa) Tendenz (hPa in 3 Std.)
Di, 28.04. 20:00 1017 + 2,2
Di, 28.04. 19:30 1016 + 1,3
Di, 28.04. 19:00 1016 + 1,0
Di, 28.04. 18:30 1016 + 1,0
Di, 28.04. 18:00 1015 + 1,0
Di, 28.04. 17:30 1015 + 0,9
Ortszeit Schneehöhe (cm)
Di, 28.04. 20:00 -
Di, 28.04. 14:00 -
Di, 28.04. 8:00 -
Di, 28.04. 2:00 -
Ortszeit Schneehöhe (cm)
Di, 28.04. 20:00 -
Di, 28.04. 19:30 0
Di, 28.04. 19:00 -
Di, 28.04. 18:30 0
Di, 28.04. 18:00 -
Di, 28.04. 17:30 0
Link zu dieser Seite / Seite empfehlen

Das Wetter in ...